Time;durP1;ratioP1;P1;durP2;ratioP2;P2;SDS_P1;SDS_P2;PMS_P1;PMS_P2;Temp;Humidity;BMP_temperature;BMP_pressure;BME280_temperature;BME280_humidity;BME280_pressure;Samples;Min_cycle;Max_cycle;Signal;HPM_P1;HPM_P2
2024/03/18 00:01:55;;;;;;;;;;;;;;;9.47;100.00;96568.50;5069192;28;19943;-71
2024/03/18 00:04:21;;;;;;;;;;;;;;;9.47;100.00;96574.56;5051767;28;19945;-81
2024/03/18 00:06:50;;;;;;;;;;;;;;;9.47;100.00;96568.50;5086834;28;19942;-81
2024/03/18 00:09:16;;;;;;;;;;;;;;;9.48;100.00;96568.28;5086758;28;19960;-81
2024/03/18 00:11:42;;;;;;;;;;;;;;;9.47;100.00;96561.47;5086117;28;19954;-81
2024/03/18 00:14:08;;;;;;;;;;;;;;;9.45;100.00;96568.72;5086176;28;20006;-81
2024/03/18 00:16:34;;;;;;;;;;;;;;;9.45;100.00;96576.59;5086942;28;20211;-81
2024/03/18 00:18:59;;;;;;;;;;;;;;;9.44;100.00;96580.19;5086097;28;19986;-73
2024/03/18 00:21:25;;;;;;;;;;;;;;;9.42;100.00;96576.19;5085367;28;19937;-74
2024/03/18 00:23:51;;;;;;;;;;;;;;;9.41;100.00;96577.19;5086429;28;19939;-74
2024/03/18 00:26:17;;;;;;;;;;;;;;;9.38;100.00;96575.00;5086454;28;19938;-75
2024/03/18 00:28:43;;;;;;;;;;;;;;;9.37;100.00;96565.53;5085891;28;19959;-74
2024/03/18 00:31:10;;;;;;;;;;;;;;;9.34;100.00;96574.59;5086014;28;19948;-74
2024/03/18 00:33:36;;;;;;;;;;;;;;;9.33;100.00;96563.31;5085778;28;20122;-75
2024/03/18 00:36:02;;;;;;;;;;;;;;;9.32;100.00;96566.13;5085713;28;19941;-74
2024/03/18 00:38:28;;;;;;;;;;;;;;;9.32;100.00;96566.13;5084987;28;20119;-73
2024/03/18 00:41:44;;;;;;;;;;;;;;;9.30;100.00;96555.91;5085505;28;19941;-74
2024/03/18 00:43:43;;;;;;;;;;;;;;;9.31;100.00;96556.69;5085518;28;20132;-74
2024/03/18 00:46:08;;;;;;;;;;;;;;;9.30;100.00;96550.66;5085581;28;19943;-74
2024/03/18 00:48:34;;;;;;;;;;;;;;;9.30;100.00;96550.66;5067704;28;19937;-74
2024/03/18 00:51:03;;;;;;;;;;;;;;;9.29;100.00;96537.78;5068224;28;19955;-74
2024/03/18 00:53:29;;;;;;;;;;;;;;;9.29;100.00;96538.56;5085377;28;20223;-74
2024/03/18 00:55:55;;;;;;;;;;;;;;;9.30;100.00;96540.19;5085351;28;19946;-86
2024/03/18 00:58:21;;;;;;;;;;;;;;;9.29;100.00;96528.09;5085571;28;19941;-72
2024/03/18 01:00:47;;;;;;;;;;;;;;;9.29;100.00;96529.94;5068239;28;19939;-73
2024/03/18 01:03:13;;;;;;;;;;;;;;;9.28;100.00;96529.13;5085202;28;19939;-72
2024/03/18 01:05:39;;;;;;;;;;;;;;;9.27;100.00;96522.28;5068065;28;19949;-72
2024/03/18 01:08:06;;;;;;;;;;;;;;;9.27;100.00;96518.88;5067685;28;19961;-73
2024/03/18 01:10:32;;;;;;;;;;;;;;;9.26;100.00;96509.41;5067959;28;19944;-72
2024/03/18 01:12:58;;;;;;;;;;;;;;;9.27;100.00;96521.47;5084890;28;19952;-72
2024/03/18 01:15:24;;;;;;;;;;;;;;;9.25;100.00;96513.81;5085006;28;19941;-70
2024/03/18 01:17:51;;;;;;;;;;;;;;;9.26;100.00;96512.00;5067739;28;20141;-71
2024/03/18 01:20:19;;;;;;;;;;;;;;;9.26;100.00;96506.78;5051262;28;19941;-71
2024/03/18 01:22:45;;;;;;;;;;;;;;;9.26;100.00;96504.16;5050298;28;19954;-72
2024/03/18 01:25:14;;;;;;;;;;;;;;;9.26;100.00;96507.59;5085275;28;19951;-71
2024/03/18 01:27:40;;;;;;;;;;;;;;;9.26;100.00;96498.91;5066617;28;19949;-71
2024/03/18 01:30:13;;;;;;;;;;;;;;;9.26;100.00;96504.97;5067515;28;19945;-71
2024/03/18 01:32:39;;;;;;;;;;;;;;;9.25;100.00;96499.94;5066878;28;19951;-75
2024/03/18 01:35:06;;;;;;;;;;;;;;;9.25;100.00;96500.75;5066853;28;19939;-69
2024/03/18 01:37:32;;;;;;;;;;;;;;;9.23;100.00;96492.31;5066732;28;19942;-70
2024/03/18 01:39:58;;;;;;;;;;;;;;;9.23;100.00;96491.50;5067400;28;19943;-70
2024/03/18 01:42:24;;;;;;;;;;;;;;;9.23;100.00;96491.50;5084435;28;19969;-70
2024/03/18 01:44:54;;;;;;;;;;;;;;;9.20;100.00;96490.13;5085141;28;20209;-70
2024/03/18 01:47:20;;;;;;;;;;;;;;;9.21;100.00;96491.69;5084664;28;19959;-69
2024/03/18 01:49:47;;;;;;;;;;;;;;;9.20;100.00;96484.88;5084864;28;19945;-70
2024/03/18 01:52:13;;;;;;;;;;;;;;;9.20;100.00;96489.28;5066362;28;20147;-74
2024/03/18 01:54:39;;;;;;;;;;;;;;;9.18;100.00;96476.44;5084362;28;19942;-84
2024/03/18 01:57:05;;;;;;;;;;;;;;;9.18;100.00;96481.66;5049745;28;19947;-84
2024/03/18 01:59:31;;;;;;;;;;;;;;;9.18;100.00;96476.44;5067201;28;20012;-84
2024/03/18 02:01:57;;;;;;;;;;;;;;;9.17;100.00;96472.19;5084726;28;19944;-84
2024/03/18 02:04:22;;;;;;;;;;;;;;;9.19;100.00;96469.38;5066393;28;19941;-84
2024/03/18 02:06:48;;;;;;;;;;;;;;;9.18;100.00;96468.59;5084618;28;20011;-85
2024/03/18 02:09:17;;;;;;;;;;;;;;;9.17;100.00;96466.16;5066324;28;19995;-71
2024/03/18 02:11:43;;;;;;;;;;;;;;;9.17;100.00;96463.56;5084808;28;19961;-82
2024/03/18 02:14:12;;;;;;;;;;;;;;;9.17;100.00;96463.56;5084034;28;20004;-82
2024/03/18 02:16:38;;;;;;;;;;;;;;;9.15;100.00;96448.06;5084059;28;19960;-82
2024/03/18 02:19:04;;;;;;;;;;;;;;;9.13;100.00;96442.22;5084000;28;20219;-82
2024/03/18 02:21:30;;;;;;;;;;;;;;;9.12;100.00;96444.03;5084778;28;19941;-82
2024/03/18 02:23:56;;;;;;;;;;;;;;;9.15;100.00;96448.06;5083946;28;19939;-82
2024/03/18 02:26:22;;;;;;;;;;;;;;;9.12;100.00;96448.47;5084471;28;19943;-82
2024/03/18 02:28:48;;;;;;;;;;;;;;;9.11;100.00;96439.84;5083901;28;19943;-72
2024/03/18 02:31:14;;;;;;;;;;;;;;;9.11;100.00;96436.41;5083842;28;19943;-71
2024/03/18 02:33:42;;;;;;;;;;;;;;;9.10;100.00;96442.66;5050141;28;19959;-71
2024/03/18 02:36:08;;;;;;;;;;;;;;;9.10;100.00;96447.88;5066557;28;19942;-71
2024/03/18 02:38:34;;;;;;;;;;;;;;;9.09;100.00;96441.03;5049214;28;19945;-71
2024/03/18 02:41:00;;;;;;;;;;;;;;;9.10;100.00;96437.44;5065806;28;19938;-71
2024/03/18 02:43:26;;;;;;;;;;;;;;;9.10;100.00;96434.81;5050099;28;20248;-71
2024/03/18 02:45:52;;;;;;;;;;;;;;;9.09;100.00;96433.19;5065898;28;19966;-85
2024/03/18 02:48:18;;;;;;;;;;;;;;;9.09;100.00;96428.78;5065946;28;19974;-73
2024/03/18 02:50:44;;;;;;;;;;;;;;;9.08;100.00;96427.16;5065842;28;19945;-73
2024/03/18 02:53:10;;;;;;;;;;;;;;;9.03;100.00;96416.53;5084369;28;19956;-73
2024/03/18 02:55:35;;;;;;;;;;;;;;;8.95;100.00;96414.16;5084193;28;19948;-73
2024/03/18 02:58:01;;;;;;;;;;;;;;;8.83;100.00;96410.56;5086779;28;19942;-73
2024/03/18 03:00:27;;;;;;;;;;;;;;;8.80;100.00;96410.97;5087811;28;20000;-73
2024/03/18 03:02:53;;;;;;;;;;;;;;;8.80;100.00;96409.19;5088320;28;20043;-73
2024/03/18 03:05:19;;;;;;;;;;;;;;;8.84;100.00;96420.84;5088140;28;19976;-85
2024/03/18 03:07:45;;;;;;;;;;;;;;;8.86;100.00;96412.75;5069460;28;20235;-82
2024/03/18 03:10:11;;;;;;;;;;;;;;;8.87;100.00;96415.19;5087553;28;19934;-82
2024/03/18 03:12:36;;;;;;;;;;;;;;;8.88;100.00;96401.09;5087292;28;19955;-82
2024/03/18 03:15:02;;;;;;;;;;;;;;;8.90;100.00;96408.72;5087810;28;19940;-81
2024/03/18 03:17:28;;;;;;;;;;;;;;;8.90;100.00;96396.47;5088059;28;19935;-82
2024/03/18 03:19:54;;;;;;;;;;;;;;;8.87;100.00;96402.09;5087229;28;19940;-82
2024/03/18 03:22:20;;;;;;;;;;;;;;;8.89;100.00;96397.47;5087954;28;20234;-72
2024/03/18 03:24:50;;;;;;;;;;;;;;;8.89;100.00;96388.81;5069336;28;19983;-72
2024/03/18 03:27:15;;;;;;;;;;;;;;;8.89;100.00;96388.81;5052616;28;19941;-74
2024/03/18 03:29:41;;;;;;;;;;;;;;;8.87;100.00;96390.84;5069764;28;19996;-74
2024/03/18 03:32:10;;;;;;;;;;;;;;;8.85;100.00;96387.63;5086842;28;20027;-74
2024/03/18 03:34:37;;;;;;;;;;;;;;;8.86;100.00;96389.22;5086892;28;19931;-74
2024/03/18 03:37:03;;;;;;;;;;;;;;;8.86;100.00;96378.78;5087674;28;20103;-74
2024/03/18 03:39:29;;;;;;;;;;;;;;;8.85;100.00;96387.63;5087076;28;20120;-74
2024/03/18 03:41:55;;;;;;;;;;;;;;;8.82;100.00;96388.03;5086631;28;19962;-70
2024/03/18 03:44:21;;;;;;;;;;;;;;;8.79;100.00;96378.81;5053022;28;19945;-82
2024/03/18 03:46:50;;;;;;;;;;;;;;;8.79;100.00;96389.25;5086110;28;19941;-82
2024/03/18 03:49:17;;;;;;;;;;;;;;;8.78;100.00;96371.97;5068925;28;20135;-82
2024/03/18 03:51:42;;;;;;;;;;;;;;;8.80;100.00;96371.75;5052891;28;19963;-82
2024/03/18 03:54:09;;;;;;;;;;;;;;;8.81;100.00;96363.72;5069382;28;19946;-82
2024/03/18 03:56:34;;;;;;;;;;;;;;;8.83;100.00;96360.91;5086541;28;19939;-82
2024/03/18 03:59:00;;;;;;;;;;;;;;;8.83;100.00;96361.69;5087038;28;19974;-83
2024/03/18 04:01:26;;;;;;;;;;;;;;;8.84;100.00;96363.31;5086479;28;19936;-73
2024/03/18 04:03:52;;;;;;;;;;;;;;;8.85;100.00;96366.72;5068463;28;19945;-84
2024/03/18 04:06:18;;;;;;;;;;;;;;;8.85;100.00;96357.06;5052574;28;19944;-83
2024/03/18 04:08:44;;;;;;;;;;;;;;;8.86;100.00;96363.91;5085382;28;19947;-83
2024/03/18 04:11:10;;;;;;;;;;;;;;;8.86;100.00;96360.47;5086216;28;19934;-83
2024/03/18 04:13:35;;;;;;;;;;;;;;;8.85;100.00;96358.88;5069112;28;20155;-83
2024/03/18 04:16:02;;;;;;;;;;;;;;;8.84;100.00;96355.47;5086214;28;19934;-83
2024/03/18 04:18:28;;;;;;;;;;;;;;;8.84;100.00;96346.78;5086197;28;19946;-71
2024/03/18 04:20:54;;;;;;;;;;;;;;;8.86;100.00;96352.63;5086064;28;19934;-70
2024/03/18 04:23:20;;;;;;;;;;;;;;;8.84;100.00;96344.19;5068109;28;19952;-69
2024/03/18 04:25:46;;;;;;;;;;;;;;;8.85;100.00;96343.19;5051382;28;19945;-69
2024/03/18 04:28:11;;;;;;;;;;;;;;;8.86;100.00;96352.63;5086686;28;19946;-70
2024/03/18 04:30:37;;;;;;;;;;;;;;;8.83;100.00;96343.38;5068687;28;19936;-70
2024/03/18 04:33:04;;;;;;;;;;;;;;;8.82;100.00;96341.78;5067871;28;19987;-70
2024/03/18 04:35:30;;;;;;;;;;;;;;;8.81;100.00;96345.41;5068713;28;20092;-85
2024/03/18 04:37:56;;;;;;;;;;;;;;;8.82;100.00;96338.34;5052120;28;19953;-72
2024/03/18 04:40:23;;;;;;;;;;;;;;;8.81;100.00;96342.00;5085771;28;19968;-74
2024/03/18 04:42:49;;;;;;;;;;;;;;;8.81;100.00;96331.53;5051002;28;19973;-75
2024/03/18 04:45:16;;;;;;;;;;;;;;;8.80;100.00;96322.91;5085629;28;19943;-75
2024/03/18 04:47:44;;;;;;;;;;;;;;;8.79;100.00;96323.91;5085554;28;19935;-75
2024/03/18 04:50:11;;;;;;;;;;;;;;;8.79;100.00;96321.28;5085480;28;19938;-75
2024/03/18 04:52:37;;;;;;;;;;;;;;;8.81;100.00;96326.31;5085626;28;19959;-75
2024/03/18 04:55:04;;;;;;;;;;;;;;;8.79;100.00;96318.66;5085427;28;19934;-84
2024/03/18 04:57:29;;;;;;;;;;;;;;;8.80;100.00;96311.63;5085346;28;19947;-70
2024/03/18 04:59:55;;;;;;;;;;;;;;;8.79;100.00;96316.06;5068151;28;19943;-69
2024/03/18 05:02:24;;;;;;;;;;;;;;;8.79;100.00;96318.66;5085248;28;19941;-70
2024/03/18 05:04:51;;;;;;;;;;;;;;;8.80;100.00;96316.84;5085152;28;19944;-70
2024/03/18 05:07:17;;;;;;;;;;;;;;;8.79;100.00;96320.47;5085150;28;19934;-70
2024/03/18 05:09:44;;;;;;;;;;;;;;;8.80;100.00;96322.06;5084260;28;19960;-69
2024/03/18 05:12:10;;;;;;;;;;;;;;;8.79;100.00;96320.47;5067428;28;19956;-70
2024/03/18 05:14:37;;;;;;;;;;;;;;;8.80;100.00;96327.31;5084997;28;19939;-74
2024/03/18 05:17:03;;;;;;;;;;;;;;;8.80;100.00;96327.31;5067973;28;19938;-84
2024/03/18 05:19:29;;;;;;;;;;;;;;;8.78;100.00;96324.91;5084639;28;19946;-85
2024/03/18 05:21:55;;;;;;;;;;;;;;;8.79;100.00;96328.31;5085134;28;19938;-84
2024/03/18 05:24:21;;;;;;;;;;;;;;;8.79;100.00;96321.28;5084865;28;19934;-84
2024/03/18 05:26:47;;;;;;;;;;;;;;;8.80;100.00;96322.06;5085038;28;19980;-84
2024/03/18 05:29:12;;;;;;;;;;;;;;;8.80;100.00;96319.47;5067712;28;20234;-84
2024/03/18 05:31:39;;;;;;;;;;;;;;;8.80;100.00;96309.00;5084688;28;19946;-74
2024/03/18 05:34:06;;;;;;;;;;;;;;;8.79;100.00;96308.19;5066692;28;19946;-83
2024/03/18 05:36:32;;;;;;;;;;;;;;;8.80;100.00;96304.59;5085464;28;19935;-83
2024/03/18 05:38:58;;;;;;;;;;;;;;;8.79;100.00;96299.56;5067325;28;20115;-83
2024/03/18 05:41:24;;;;;;;;;;;;;;;8.78;100.00;96297.94;5066554;28;19966;-83
2024/03/18 05:43:51;;;;;;;;;;;;;;;8.79;100.00;96299.56;5067400;28;19954;-84
2024/03/18 05:46:17;;;;;;;;;;;;;;;8.78;100.00;96296.16;5084981;28;19942;-83
2024/03/18 05:48:43;;;;;;;;;;;;;;;8.78;100.00;96298.78;5066608;28;19936;-83
2024/03/18 05:51:09;;;;;;;;;;;;;;;8.79;100.00;96297.75;5067355;28;19942;-72
2024/03/18 05:53:35;;;;;;;;;;;;;;;8.79;100.00;96295.13;5050597;28;19955;-83
2024/03/18 05:56:02;;;;;;;;;;;;;;;8.80;100.00;96293.31;5067075;28;19934;-83
2024/03/18 05:58:29;;;;;;;;;;;;;;;8.80;100.00;96303.78;5022817;28;19951;-83
2024/03/18 06:00:54;;;;;;;;;;;;;;;8.82;100.00;96301.75;5023501;28;19944;-83
2024/03/18 06:03:20;;;;;;;;;;;;;;;8.81;100.00;96303.56;5006843;28;19938;-83
2024/03/18 06:05:46;;;;;;;;;;;;;;;8.82;100.00;96305.19;5022690;28;19942;-83
2024/03/18 06:08:12;;;;;;;;;;;;;;;8.82;100.00;96299.97;4990431;28;19975;-71
2024/03/18 06:10:38;;;;;;;;;;;;;;;8.83;100.00;96301.53;5006465;28;20008;-74
2024/03/18 06:13:04;;;;;;;;;;;;;;;8.84;100.00;96300.56;5022491;28;19956;-72
2024/03/18 06:15:30;;;;;;;;;;;;;;;8.85;100.00;96299.53;4990739;28;19947;-72
2024/03/18 06:17:56;;;;;;;;;;;;;;;8.86;100.00;96302.94;5005973;28;19951;-73
2024/03/18 06:20:21;;;;;;;;;;;;;;;8.87;100.00;96310.56;5022519;28;19954;-71
2024/03/18 06:22:49;;;;;;;;;;;;;;;8.88;100.00;96311.38;5022523;28;20089;-72
2024/03/18 06:27:59;;;;;;;;;;;;;;;8.88;100.00;96314.81;5023359;28;19938;-95
2024/03/18 06:30:25;;;;;;;;;;;;;;;8.89;100.00;96308.56;5059446;28;19992;-83
2024/03/18 06:32:51;;;;;;;;;;;;;;;8.90;100.00;96310.16;5065270;28;20152;-84
2024/03/18 06:35:17;;;;;;;;;;;;;;;8.91;100.00;96311.75;5084667;28;19935;-83
2024/03/18 06:37:43;;;;;;;;;;;;;;;8.92;100.00;96312.56;5083832;28;19952;-83
2024/03/18 06:40:11;;;;;;;;;;;;;;;8.93;100.00;96322.81;5083821;28;20225;-84
2024/03/18 06:42:37;;;;;;;;;;;;;;;8.93;100.00;96317.59;5083803;28;20285;-84
2024/03/18 06:45:03;;;;;;;;;;;;;;;8.96;100.00;96315.56;5084282;28;19949;-87
2024/03/18 06:47:29;;;;;;;;;;;;;;;8.95;100.00;96306.91;5066562;28;19942;-74
2024/03/18 06:49:55;;;;;;;;;;;;;;;8.96;100.00;96307.72;5066679;28;19942;-69
2024/03/18 06:52:21;;;;;;;;;;;;;;;8.91;100.00;96309.16;5049170;28;19971;-69
2024/03/18 06:54:47;;;;;;;;;;;;;;;8.87;100.00;96313.19;5083668;28;19941;-69
2024/03/18 06:57:15;;;;;;;;;;;;;;;8.85;100.00;96317.03;5065629;28;20213;-70
2024/03/18 06:59:40;;;;;;;;;;;;;;;8.84;100.00;96308.41;5083603;28;19941;-70
2024/03/18 07:02:06;;;;;;;;;;;;;;;8.85;100.00;96307.38;5084265;28;20259;-70
2024/03/18 07:04:34;;;;;;;;;;;;;;;8.87;100.00;96310.56;5065658;28;19944;-72
2024/03/18 07:06:59;;;;;;;;;;;;;;;8.87;100.00;96305.34;5083501;28;19943;-78
2024/03/18 07:09:25;;;;;;;;;;;;;;;8.85;100.00;96309.97;5065726;28;19953;-78
2024/03/18 07:11:51;;;;;;;;;;;;;;;8.86;100.00;96313.41;5083498;28;20128;-78
2024/03/18 07:14:17;;;;;;;;;;;;;;;8.88;100.00;96316.59;5083410;28;19969;-78
2024/03/18 07:16:43;;;;;;;;;;;;;;;8.90;100.00;96319.81;5083403;28;19945;-78
2024/03/18 07:19:08;;;;;;;;;;;;;;;8.92;100.00;96318.59;5083952;28;20175;-78
2024/03/18 07:21:35;;;;;;;;;;;;;;;8.97;100.00;96322.41;5084228;28;19941;-71
2024/03/18 07:24:01;;;;;;;;;;;;;;;9.00;100.00;96327.22;5065485;28;19937;-77
2024/03/18 07:26:28;;;;;;;;;;;;;;;9.02;100.00;96330.41;5083381;28;19938;-73
2024/03/18 07:28:55;;;;;;;;;;;;;;;9.06;100.00;96328.97;5065342;28;19947;-74
2024/03/18 07:31:20;;;;;;;;;;;;;;;9.09;100.00;96333.78;5084106;28;19941;-73
2024/03/18 07:33:46;;;;;;;;;;;;;;;9.11;100.00;96331.75;5083697;28;19964;-73
2024/03/18 07:36:12;;;;;;;;;;;;;;;9.13;100.00;96329.72;5083785;28;19981;-73
2024/03/18 07:38:38;;;;;;;;;;;;;;;9.15;100.00;96332.94;5083250;28;19972;-73
2024/03/18 07:41:04;;;;;;;;;;;;;;;9.16;100.00;96329.31;5083016;28;19964;-84
2024/03/18 07:43:30;;;;;;;;;;;;;;;9.18;100.00;96322.06;5085584;28;19940;-87
2024/03/18 07:45:55;;;;;;;;;;;;;;;9.21;100.00;96318.22;5087551;28;20016;-88
2024/03/18 07:48:22;;;;;;;;;;;;;;;9.23;100.00;96324.03;5086713;28;19936;-89
2024/03/18 07:50:54;;;;;;;;;;;;;;;9.25;100.00;96322.00;5069659;28;20015;-89
2024/03/18 07:53:20;;;;;;;;;;;;;;;9.25;100.00;96322.81;5068805;28;19961;-90
2024/03/18 07:55:45;;;;;;;;;;;;;;;9.25;100.00;96314.97;5087439;28;19940;-90
2024/03/18 07:58:11;;;;;;;;;;;;;;;9.23;100.00;96314.38;5086624;28;19947;-71
2024/03/18 08:00:38;;;;;;;;;;;;;;;9.20;100.00;96321.84;5068657;28;19944;-90
2024/03/18 08:03:04;;;;;;;;;;;;;;;9.19;100.00;96317.63;5086417;28;20219;-79
2024/03/18 08:05:30;;;;;;;;;;;;;;;9.21;100.00;96316.41;5086390;28;19933;-79
2024/03/18 08:07:56;;;;;;;;;;;;;;;9.18;100.00;96314.22;5086278;28;20149;-80
2024/03/18 08:10:22;;;;;;;;;;;;;;;9.17;100.00;96317.84;5086812;28;19936;-79
2024/03/18 08:12:48;;;;;;;;;;;;;;;9.18;100.00;96323.88;5086190;28;19954;-80
2024/03/18 08:15:15;;;;;;;;;;;;;;;9.22;100.00;96325.03;5087008;28;19934;-80
2024/03/18 08:17:41;;;;;;;;;;;;;;;9.24;100.00;96326.47;5086155;28;19990;-73
2024/03/18 08:20:09;;;;;;;;;;;;;;;9.29;100.00;96328.44;5086075;28;19950;-70
2024/03/18 08:22:35;;;;;;;;;;;;;;;9.32;100.00;96328.00;5068503;28;19935;-69
2024/03/18 08:25:02;;;;;;;;;;;;;;;9.35;100.00;96324.97;5086008;28;19939;-70
2024/03/18 08:27:32;;;;;;;;;;;;;;;9.38;100.00;96324.53;5068184;28;20131;-70
2024/03/18 08:29:58;;;;;;;;;;;;;;;9.40;100.00;96321.69;5067905;28;19940;-70
2024/03/18 08:32:24;;;;;;;;;;;;;;;9.41;100.00;96334.59;5068724;28;19954;-70
2024/03/18 08:34:50;;;;;;;;;;;;;;;9.40;100.00;96327.72;5086131;28;20008;-72
2024/03/18 08:37:19;;;;;;;;;;;;;;;9.41;100.00;96331.16;5068674;28;19943;-82
2024/03/18 08:39:46;;;;;;;;;;;;;;;9.41;100.00;96328.53;5067721;28;19949;-74
2024/03/18 08:42:12;;;;;;;;;;;;;;;9.39;100.00;96330.59;5085386;28;19968;-74
2024/03/18 08:44:38;;;;;;;;;;;;;;;9.36;100.00;96331.78;5051043;28;19954;-75
2024/03/18 08:47:04;;;;;;;;;;;;;;;9.34;100.00;96337.25;5051787;28;19942;-74
2024/03/18 08:49:30;;;;;;;;;;;;;;;9.35;100.00;96333.63;5086054;28;19936;-74
2024/03/18 08:51:56;;;;;;;;;;;;;;;9.34;100.00;96331.19;5085440;28;20212;-74
2024/03/18 08:54:22;;;;;;;;;;;;;;;9.33;100.00;96325.16;5084741;28;19999;-72
2024/03/18 08:56:48;;;;;;;;;;;;;;;9.28;100.00;96326.81;5086149;28;19987;-70
2024/03/18 08:59:14;;;;;;;;;;;;;;;9.18;100.00;96318.66;5067582;28;19949;-69
2024/03/18 09:01:40;;;;;;;;;;;;;;;9.09;100.00;96311.06;5085232;28;19942;-71
2024/03/18 09:04:05;;;;;;;;;;;;;;;9.01;100.00;96319.16;5067988;28;19936;-69
2024/03/18 09:06:34;;;;;;;;;;;;;;;8.98;100.00;96322.19;5085677;28;20000;-69
2024/03/18 09:09:00;;;;;;;;;;;;;;;8.98;100.00;96318.78;5067425;28;20034;-70
2024/03/18 09:11:26;;;;;;;;;;;;;;;9.00;100.00;96316.75;5085043;28;19941;-71
2024/03/18 09:13:53;;;;;;;;;;;;;;;9.03;100.00;96322.38;5067666;28;19952;-88
2024/03/18 09:16:19;;;;;;;;;;;;;;;9.06;100.00;96326.38;5067826;28;19932;-90
2024/03/18 09:18:45;;;;;;;;;;;;;;;9.06;100.00;96324.53;5084927;28;19938;-88
2024/03/18 09:21:12;;;;;;;;;;;;;;;9.12;100.00;96328.13;5050431;28;20017;-89
2024/03/18 09:23:37;;;;;;;;;;;;;;;9.14;100.00;96334.75;5084895;28;19935;-89
2024/03/18 09:26:03;;;;;;;;;;;;;;;9.16;100.00;96326.72;5084871;28;19946;-89
2024/03/18 09:28:29;;;;;;;;;;;;;;;9.19;100.00;96330.72;5067032;28;19944;-90
2024/03/18 09:30:59;;;;;;;;;;;;;;;9.21;100.00;96331.31;5085376;28;19974;-90
2024/03/18 09:33:25;;;;;;;;;;;;;;;9.18;100.00;96329.91;5084875;28;19951;-79
2024/03/18 09:35:51;;;;;;;;;;;;;;;9.16;100.00;96334.56;5066632;28;19973;-79
2024/03/18 09:38:16;;;;;;;;;;;;;;;9.13;100.00;96333.16;5066815;28;19944;-79
2024/03/18 09:40:42;;;;;;;;;;;;;;;9.14;100.00;96333.97;5084883;28;19943;-78
2024/03/18 09:43:10;;;;;;;;;;;;;;;9.18;100.00;96339.59;5084368;28;19936;-79
2024/03/18 09:45:36;;;;;;;;;;;;;;;9.25;100.00;96345.56;5066565;28;20216;-78
2024/03/18 09:48:03;;;;;;;;;;;;;;;9.31;100.00;96336.88;5084350;28;19940;-79
2024/03/18 09:50:30;;;;;;;;;;;;;;;9.35;100.00;96345.91;5084823;28;19945;-74
2024/03/18 09:52:56;;;;;;;;;;;;;;;9.35;100.00;96338.84;5084188;28;20166;-73
2024/03/18 09:55:23;;;;;;;;;;;;;;;9.38;100.00;96342.84;5084262;28;19962;-72
2024/03/18 09:57:49;;;;;;;;;;;;;;;9.42;100.00;96344.03;5067024;28;19936;-72
2024/03/18 10:00:17;;;;;;;;;;;;;;;9.44;100.00;96342.00;5066393;28;20284;-72
2024/03/18 10:02:43;;;;;;;;;;;;;;;9.45;100.00;96350.66;5084949;28;19941;-73
2024/03/18 10:05:09;;;;;;;;;;;;;;;9.49;100.00;96349.22;5066357;28;19930;-72
2024/03/18 10:07:35;;;;;;;;;;;;;;;9.54;100.00;96354.63;5083954;28;19937;-79
2024/03/18 10:10:02;;;;;;;;;;;;;;;9.59;100.00;96354.78;5084696;28;19941;-79
2024/03/18 10:12:28;;;;;;;;;;;;;;;9.63;100.00;96361.19;5066134;28;20134;-79
2024/03/18 10:14:54;;;;;;;;;;;;;;;9.62;100.00;96364.03;5066542;28;19960;-79
2024/03/18 10:17:20;;;;;;;;;;;;;;;9.62;100.00;96364.84;5066212;28;19939;-79
2024/03/18 10:19:45;;;;;;;;;;;;;;;9.62;100.00;96362.22;5083988;28;19937;-79
2024/03/18 10:22:12;;;;;;;;;;;;;;;9.63;100.00;96361.19;5084211;28;19939;-78
2024/03/18 10:24:42;;;;;;;;;;;;;;;9.66;100.00;96358.16;5083864;28;19936;-78
2024/03/18 10:27:12;;;;;;;;;;;;;;;9.72;100.00;96354.69;5084093;28;19937;-72
2024/03/18 10:29:39;;;;;;;;;;;;;;;9.79;100.00;96356.44;5083903;28;19942;-70
2024/03/18 10:32:10;;;;;;;;;;;;;;;9.81;100.00;96359.66;5066571;28;19948;-70
2024/03/18 10:34:38;;;;;;;;;;;;;;;9.82;100.00;96363.84;5049908;28;20113;-70
2024/03/18 10:37:05;;;;;;;;;;;;;;;9.84;100.00;96364.44;5066504;28;19937;-70
2024/03/18 10:40:00;;;;;;;;;;;;;;;9.86;100.00;96360.59;5083795;28;19944;-69
2024/03/18 10:42:31;;;;;;;;;;;;;;;9.89;100.00;96357.56;5036362;28;19973;-69
2024/03/18 10:45:02;;;;;;;;;;;;;;;9.93;100.00;96357.91;5066632;28;20231;-79
2024/03/18 10:47:28;;;;;;;;;;;;;;;9.95;100.00;96356.69;5066880;28;19942;-71
2024/03/18 10:49:54;;;;;;;;;;;;;;;9.98;100.00;96360.69;5065706;28;19953;-71
2024/03/18 10:52:20;;;;;;;;;;;;;;;10.01;100.00;96360.25;5066546;28;20231;-72
2024/03/18 10:54:47;;;;;;;;;;;;;;;10.03;100.00;96363.47;5083855;28;19992;-72
2024/03/18 10:57:13;;;;;;;;;;;;;;;10.07;100.00;96359.38;5066294;28;19936;-71
2024/03/18 10:59:39;;;;;;;;;;;;;;;10.09;100.00;96364.41;5083869;28;20138;-71
2024/03/18 11:02:08;;;;;;;;;;;;;;;10.12;100.00;96369.22;5065625;28;19946;-71
2024/03/18 11:04:39;;;;;;;;;;;;;;;10.13;100.00;96361.16;5065809;28;19997;-84
2024/03/18 11:07:04;;;;;;;;;;;;;;;10.20;100.00;96368.16;5084027;28;19942;-79
2024/03/18 11:09:31;;;;;;;;;;;;;;;10.25;100.00;96373.56;5083465;28;19963;-79
2024/03/18 11:11:57;;;;;;;;;;;;;;;10.30;100.00;96371.09;5066419;28;20125;-80
2024/03/18 11:14:24;;;;;;;;;;;;;;;10.29;100.00;96372.94;5084216;28;19974;-80
2024/03/18 11:16:51;;;;;;;;;;;;;;;10.27;100.00;96374.94;5083384;28;19938;-80
2024/03/18 11:19:18;;;;;;;;;;;;;;;10.27;100.00;96382.78;5086810;28;19981;-80
2024/03/18 11:21:44;;;;;;;;;;;;;;;10.24;100.00;96383.22;5087164;28;19941;-71
2024/03/18 11:24:21;;;;;;;;;;;;;;;10.21;100.00;96390.72;5087643;28;20213;-70
2024/03/18 11:26:52;;;;;;;;;;;;;;;10.19;100.00;96380.44;5069983;28;19943;-70
2024/03/18 11:29:18;;;;;;;;;;;;;;;10.16;100.00;96384.31;5087585;28;19942;-69
2024/03/18 11:31:47;;;;;;;;;;;;;;;10.14;100.00;96390.75;5069758;28;19933;-70
2024/03/18 11:34:21;;;;;;;;;;;;;;;10.12;100.00;96392.81;5069774;28;19956;-69
2024/03/18 11:36:47;;;;;;;;;;;;;;;10.11;100.00;96392.00;5069388;28;19940;-70
2024/03/18 11:39:15;;;;;;;;;;;;;;;10.09;100.00;96391.41;5086343;28;19941;-75
2024/03/18 11:41:41;;;;;;;;;;;;;;;10.10;100.00;96387.78;5068742;28;19970;-76
2024/03/18 11:44:10;;;;;;;;;;;;;;;10.10;100.00;96394.84;5087262;28;19954;-80
2024/03/18 11:46:36;;;;;;;;;;;;;;;10.08;100.00;96400.31;5086940;28;19944;-82
2024/03/18 11:49:07;;;;;;;;;;;;;;;10.06;100.00;96397.09;5069735;28;19943;-80
2024/03/18 11:51:34;;;;;;;;;;;;;;;10.07;100.00;96395.28;5087194;28;20110;-80
2024/03/18 11:54:04;;;;;;;;;;;;;;;10.07;100.00;96390.84;5068730;28;19964;-81
2024/03/18 11:56:32;;;;;;;;;;;;;;;10.09;100.00;96388.00;5087090;28;19935;-80
2024/03/18 11:58:59;;;;;;;;;;;;;;;10.12;100.00;96387.56;5086541;28;20159;-73
2024/03/18 12:01:27;;;;;;;;;;;;;;;10.14;100.00;96393.38;5087060;28;19947;-80
2024/03/18 12:03:53;;;;;;;;;;;;;;;10.14;100.00;96396.84;5086947;28;19936;-81
2024/03/18 12:06:19;;;;;;;;;;;;;;;10.14;100.00;96390.75;5086925;28;20010;-81
2024/03/18 12:08:45;;;;;;;;;;;;;;;10.14;100.00;96386.34;5086853;28;19948;-80
2024/03/18 12:11:11;;;;;;;;;;;;;;;10.17;100.00;96390.34;5087073;28;19938;-81
2024/03/18 12:13:37;;;;;;;;;;;;;;;10.20;100.00;96394.34;5086665;28;19995;-81
2024/03/18 12:16:04;;;;;;;;;;;;;;;10.21;100.00;96396.75;5086167;28;19946;-78
2024/03/18 12:18:30;;;;;;;;;;;;;;;10.24;100.00;96393.69;5086195;28;20245;-81
2024/03/18 12:20:56;;;;;;;;;;;;;;;10.31;100.00;96404.97;5085038;28;19936;-71
2024/03/18 12:29:03;;;;;;;;;;;;;;;10.36;100.00;96402.47;5085922;28;19938;-71
2024/03/18 12:31:36;;;;;;;;;;;;;;;10.33;100.00;96404.72;5086129;28;19942;-71
2024/03/18 12:34:03;;;;;;;;;;;;;;;10.31;100.00;96396.28;5068616;28;19960;-71
2024/03/18 12:36:29;;;;;;;;;;;;;;;10.30;100.00;96405.16;5085805;28;19940;-79
2024/03/18 12:38:58;;;;;;;;;;;;;;;10.32;100.00;96398.69;5068480;28;19943;-79
2024/03/18 12:41:26;;;;;;;;;;;;;;;10.33;100.00;96396.88;5085508;28;20139;-80
2024/03/18 12:43:52;;;;;;;;;;;;;;;10.32;100.00;96403.94;5067956;28;19952;-80
2024/03/18 12:46:18;;;;;;;;;;;;;;;10.34;100.00;96396.66;5085497;28;20217;-80
2024/03/18 12:48:45;;;;;;;;;;;;;;;10.39;100.00;96395.19;5067653;28;19966;-80
2024/03/18 12:51:15;;;;;;;;;;;;;;;10.45;100.00;96397.75;5085491;28;19950;-80